createdAt,value
2022-09-21T00:02:10.274Z,440.77419
2022-09-21T00:07:11.978Z,429.03937
2022-09-21T00:12:13.570Z,429.03937
2022-09-21T00:17:15.197Z,514.37037
2022-09-21T00:22:16.809Z,525.13208
2022-09-21T00:27:18.436Z,479.65217
2022-09-21T00:32:20.115Z,504
2022-09-21T00:37:21.763Z,553.90099
2022-09-21T00:42:23.364Z,599.31915
2022-09-21T00:47:25.019Z,498.95495
2022-09-21T00:52:26.742Z,498.95495
2022-09-21T00:57:28.503Z,436.8
2022-09-21T01:02:30.214Z,396.94118
2022-09-21T01:07:32.006Z,363.04762
2022-09-21T01:12:33.608Z,400.2963
2022-09-21T01:17:35.488Z,363.04762
2022-09-21T01:22:37.090Z,271.65957
2022-09-21T01:27:38.667Z,226.56881
2022-09-21T01:32:40.402Z,248.9505
2022-09-21T01:37:42.069Z,200.66667
2022-09-21T01:42:43.685Z,164.78853
2022-09-21T01:47:45.279Z,165.58273
2022-09-21T01:52:46.900Z,152.81356
2022-09-21T01:57:48.532Z,115.58774
2022-09-21T02:02:50.237Z,105.67979
2022-09-21T02:07:51.865Z,98.38596
2022-09-21T02:12:53.469Z,106.10526
2022-09-21T02:17:55.297Z,115.58774
2022-09-21T02:22:56.904Z,115.58774
2022-09-21T02:27:58.542Z,96.47525
2022-09-21T02:33:00.143Z,101.14286
2022-09-21T02:38:01.732Z,137.71069
2022-09-21T02:43:03.429Z,139.55556
2022-09-21T02:48:05.014Z,114.63712
2022-09-21T02:53:06.657Z,152.81356
2022-09-21T02:58:08.319Z,124.11696
2022-09-21T03:03:09.917Z,98.38596
2022-09-21T03:08:11.599Z,80.28319
2022-09-21T03:13:13.116Z,79.68282
2022-09-21T03:18:14.784Z,104.41667
2022-09-21T03:23:16.396Z,89.97156
2022-09-21T03:28:17.988Z,88.94118
2022-09-21T03:33:19.623Z,93.15254
2022-09-21T03:38:21.291Z,84.31891
2022-09-21T03:43:22.953Z,76.47312
2022-09-21T03:48:24.619Z,74.23256
2022-09-21T03:53:26.255Z,75.34328
2022-09-21T03:58:27.981Z,75.06383
2022-09-21T04:03:29.593Z,80.58537
2022-09-21T04:08:31.294Z,84.63927
2022-09-21T04:13:33.017Z,84
2022-09-21T04:18:34.651Z,106.10526
2022-09-21T04:23:36.256Z,110.48649
2022-09-21T04:28:37.900Z,99.55556
2022-09-21T04:33:39.512Z,97.23383
2022-09-21T04:38:41.144Z,89.62648
2022-09-21T04:43:42.773Z,77.91304
2022-09-21T04:48:44.484Z,76.18884
2022-09-21T04:53:46.094Z,77.04536
2022-09-21T04:58:47.678Z,76.75862
2022-09-21T05:03:49.342Z,91.36842
2022-09-21T05:08:51.023Z,106.10526
2022-09-21T05:13:52.638Z,104.41667
2022-09-21T05:18:54.292Z,127.33333
2022-09-21T05:23:55.914Z,110.48649
2022-09-21T05:28:57.575Z,114.63712
2022-09-21T05:33:59.311Z,102.35476
2022-09-21T05:39:00.985Z,109.5914
2022-09-21T05:44:02.846Z,104.41667
2022-09-21T05:49:04.479Z,106.10526
2022-09-21T05:54:06.193Z,106.96296
2022-09-21T05:59:07.835Z,107.39523
2022-09-21T06:04:09.612Z,112.76712
2022-09-21T06:09:11.474Z,107.39523
2022-09-21T06:14:13.123Z,120
2022-09-21T06:19:14.837Z,128.98498
2022-09-21T06:24:16.427Z,136.5
2022-09-21T06:29:18.081Z,127.8806
2022-09-21T06:34:19.793Z,134.71207
2022-09-21T06:39:21.444Z,173.85075
2022-09-21T06:44:23.064Z,140.80511
2022-09-21T06:49:24.659Z,124.64516
2022-09-21T06:54:26.297Z,142.07074
2022-09-21T06:59:27.899Z,137.71069
2022-09-21T07:04:29.525Z,126.78932
2022-09-21T07:15:02.972Z,120.5043
2022-09-21T07:20:04.649Z,212.99563
2022-09-21T07:25:06.234Z,201.74059
2022-09-21T07:30:07.856Z,194.4065
2022-09-21T07:35:09.473Z,180.01533
2022-09-21T07:40:11.275Z,164.78853
2022-09-21T07:45:12.907Z,178.22053
2022-09-21T07:50:14.531Z,184.625
2022-09-21T07:55:16.121Z,210.66667
2022-09-21T08:00:17.740Z,220.23318
2022-09-21T08:05:19.510Z,186.51969
2022-09-21T08:10:21.116Z,192.3871
2022-09-21T08:15:46.859Z,210.66667
2022-09-21T08:20:50.895Z,206.12766
2022-09-21T08:25:52.565Z,231.85047
2022-09-21T08:30:54.181Z,208.37768
2022-09-21T08:35:55.799Z,164
2022-09-21T08:40:57.458Z,142.07074
2022-09-21T08:45:59.085Z,133.53846
2022-09-21T08:51:00.730Z,133.53846
2022-09-21T08:56:02.423Z,128.98498
2022-09-21T09:01:07.056Z,114.63712
2022-09-21T09:06:09.077Z,106.10526
2022-09-21T09:11:10.656Z,118.0113
2022-09-21T09:16:12.343Z,114.16575
2022-09-21T09:21:16.376Z,115.58774
2022-09-21T09:26:19.749Z,104.83551
2022-09-21T09:31:21.464Z,103.58549
2022-09-21T09:36:40.195Z,98.77387
2022-09-21T09:41:56.021Z,96.47525
2022-09-21T09:46:57.943Z,96.8536
2022-09-21T09:51:59.614Z,99.55556
2022-09-21T09:57:01.301Z,91.36842
2022-09-21T10:02:03.202Z,84.9611
2022-09-21T10:07:04.883Z,85.6092
2022-09-21T10:12:10.335Z,93.87835
2022-09-21T10:17:12.232Z,89.62648
2022-09-21T10:22:13.914Z,91.36842
2022-09-21T10:27:15.596Z,88.60094
2022-09-21T10:32:17.292Z,85.93548
2022-09-21T10:37:18.857Z,94.2439
2022-09-21T10:42:20.493Z,93.51456
2022-09-21T10:47:22.119Z,107.39523
2022-09-21T10:52:23.742Z,117.03371
2022-09-21T10:57:25.348Z,124.11696
2022-09-21T11:02:27.066Z,149.33333
2022-09-21T11:07:28.724Z,149.33333
2022-09-21T11:12:30.426Z,136.5
2022-09-21T11:17:32.048Z,110.93767
2022-09-21T11:22:33.681Z,107.39523
2022-09-21T11:27:35.322Z,130.10272
2022-09-21T11:32:36.914Z,131.23404
2022-09-21T11:37:38.523Z,171.30627
2022-09-21T11:42:40.149Z,155.68385
2022-09-21T11:47:41.790Z,140.17834
2022-09-21T11:52:43.421Z,186.51969
2022-09-21T11:57:45.001Z,180.01533
2022-09-21T12:02:46.915Z,137.71069
2022-09-21T12:07:48.629Z,131.23404
2022-09-21T12:12:50.231Z,114.63712
2022-09-21T12:17:51.835Z,117.52113
2022-09-21T12:22:53.442Z,140.17834
2022-09-21T12:27:55.074Z,164
2022-09-21T12:32:56.688Z,173.85075
2022-09-21T12:37:58.297Z,154.23891
2022-09-21T12:42:59.933Z,168
2022-09-21T12:48:01.501Z,171.30627
2022-09-21T12:53:03.193Z,168.81752
2022-09-21T12:58:15.097Z,131.80488
2022-09-21T13:03:17.891Z,145.30719
2022-09-21T13:08:19.540Z,132.3792
2022-09-21T13:13:21.191Z,126.78932
2022-09-21T13:18:22.834Z,118.0113
2022-09-21T13:23:24.461Z,107.39523
2022-09-21T13:28:26.098Z,90.31829
2022-09-21T13:33:27.916Z,91.36842
2022-09-21T13:38:29.527Z,107.39523
2022-09-21T13:43:31.100Z,92.07692
2022-09-21T13:48:32.755Z,87.92523
2022-09-21T13:53:34.358Z,81.80761
2022-09-21T13:58:35.952Z,80.88889
2022-09-21T14:03:37.621Z,81.19376
2022-09-21T14:08:39.231Z,94.61125
2022-09-21T14:13:40.839Z,103.58549
2022-09-21T14:18:42.431Z,94.98039
2022-09-21T14:23:44.198Z,99.94937
2022-09-21T14:28:45.820Z,98.77387
2022-09-21T14:33:47.411Z,95.35135
2022-09-21T14:38:50.400Z,116.54902
2022-09-21T14:43:53.434Z,104.41667
2022-09-21T14:48:55.080Z,103.58549
2022-09-21T14:53:56.860Z,112.76712
2022-09-21T14:58:58.553Z,132.95706
2022-09-21T15:04:00.273Z,171.30627
2022-09-21T15:09:01.953Z,188.44444
2022-09-21T15:14:03.663Z,245.96078
2022-09-21T15:19:05.298Z,296
2022-09-21T15:24:06.894Z,292.0226
2022-09-21T15:29:09.977Z,308.49704
2022-09-21T15:34:12.087Z,282.46154
2022-09-21T15:39:13.779Z,266.51309
2022-09-21T15:44:15.381Z,247.44828
2022-09-21T15:49:17.038Z,230.51163
2022-09-21T15:54:18.636Z,264.83333
2022-09-21T15:59:20.262Z,253.54774
2022-09-21T16:04:22.128Z,377.80282
2022-09-21T16:09:23.938Z,319.60976
2022-09-21T16:14:25.625Z,321.91411
2022-09-21T16:19:27.288Z,333.87342
2022-09-21T16:24:28.916Z,384
2022-09-21T16:29:30.537Z,341.41935
2022-09-21T16:34:32.186Z,365.91781
2022-09-21T16:39:33.837Z,360.21622
2022-09-21T16:44:35.443Z,349.26316
2022-09-21T16:49:37.078Z,338.87179
2022-09-21T16:54:38.765Z,365.91781
2022-09-21T16:59:40.383Z,377.80282
2022-09-21T17:04:41.998Z,393.63504
2022-09-21T17:09:43.604Z,363.04762
2022-09-21T17:14:47.006Z,368.82759
2022-09-21T17:19:49.391Z,326.6087
2022-09-21T17:24:52.266Z,292.0226
2022-09-21T17:29:54.339Z,344
2022-09-21T17:34:56.051Z,304.23392
2022-09-21T17:39:57.701Z,266.51309
2022-09-21T17:44:59.424Z,268.21053
2022-09-21T17:50:01.169Z,261.52577
2022-09-21T17:55:05.901Z,241.58454
2022-09-21T18:00:07.882Z,241.58454
2022-09-21T18:05:09.508Z,237.33333
2022-09-21T18:10:11.105Z,278.78261
2022-09-21T18:15:12.693Z,292.0226
2022-09-21T18:20:14.313Z,306.35294
2022-09-21T18:25:15.996Z,306.35294
2022-09-21T18:30:17.601Z,344
2022-09-21T18:35:19.997Z,329
2022-09-21T18:40:21.688Z,284.33149
2022-09-21T18:45:23.501Z,344
2022-09-21T18:50:25.081Z,417.84615
2022-09-21T18:55:26.698Z,421.51938
2022-09-21T19:00:28.321Z,440.77419
2022-09-21T19:05:29.966Z,396.94118
2022-09-21T19:10:31.603Z,377.80282
2022-09-21T19:15:58.471Z,360.21622
2022-09-21T19:21:01.821Z,432.88889
2022-09-21T19:26:03.485Z,365.91781
2022-09-21T19:31:05.314Z,444.81301
2022-09-21T19:36:06.954Z,346.61438
2022-09-21T19:41:08.559Z,310.66667
2022-09-21T19:46:10.223Z,380.87943
2022-09-21T19:51:11.892Z,380.87943
2022-09-21T19:56:13.533Z,377.80282
2022-09-21T20:01:15.248Z,326.6087
2022-09-21T20:06:16.969Z,341.41935
2022-09-21T20:11:18.609Z,308.49704
2022-09-21T20:16:20.337Z,310.66667
2022-09-21T20:21:22.065Z,326.6087
2022-09-21T20:26:23.711Z,324.24691
2022-09-21T20:31:25.414Z,264.83333
2022-09-21T20:36:27.096Z,288.13408
2022-09-21T20:41:28.749Z,319.60976
2022-09-21T20:46:30.449Z,360.21622
2022-09-21T20:51:32.104Z,346.61438
2022-09-21T20:56:33.751Z,280.61202
2022-09-21T21:01:35.356Z,266.51309
2022-09-21T21:06:37.039Z,349.26316
2022-09-21T21:11:38.680Z,390.37681
2022-09-21T21:16:40.347Z,374.76923
2022-09-21T21:21:42.041Z,365.91781
2022-09-21T21:27:01.182Z,341.41935
2022-09-21T21:32:04.290Z,380.87943
2022-09-21T21:37:06.017Z,341.41935
2022-09-21T21:42:07.836Z,371.77778
2022-09-21T21:47:37.624Z,457.33333
2022-09-21T21:52:40.244Z,453.09091
2022-09-21T21:57:42.122Z,284.33149
2022-09-21T22:02:43.753Z,440.77419
2022-09-21T22:07:45.362Z,429.03937
2022-09-21T22:12:47.064Z,448.91803
2022-09-21T22:17:48.664Z,396.94118
2022-09-21T22:22:50.250Z,390.37681
2022-09-21T22:27:51.850Z,444.81301
2022-09-21T22:32:53.455Z,489.13274
2022-09-21T22:37:55.068Z,421.51938
2022-09-21T22:42:56.656Z,432.88889
2022-09-21T22:47:58.299Z,461.64706
2022-09-21T22:52:59.895Z,498.95495
2022-09-21T22:58:01.545Z,484.35088
2022-09-21T23:08:23.642Z,525.13208
2022-09-21T23:13:25.345Z,530.66667
2022-09-21T23:18:26.971Z,444.81301
2022-09-21T23:23:28.680Z,417.84615
2022-09-21T23:28:30.530Z,461.64706
2022-09-21T23:33:32.227Z,444.81301
2022-09-21T23:38:34.037Z,329
2022-09-21T23:43:35.855Z,354.66667
2022-09-21T23:48:37.480Z,365.91781
2022-09-21T23:53:39.080Z,377.80282
2022-09-21T23:58:40.704Z,333.87342
